Time;durP1;ratioP1;P1;durP2;ratioP2;P2;SDS_P1;SDS_P2;PMS_P1;PMS_P2;Temp;Humidity;BMP_temperature;BMP_pressure;BME280_temperature;BME280_humidity;BME280_pressure;Samples;Min_cycle;Max_cycle;Signal;HPM_P1;HPM_P2
2023/02/12 00:01:58;;;;;;;17.00;9.98;;;;;;;7.54;100.00;102858.69;4998542;28;20036;-76
2023/02/12 00:04:24;;;;;;;28.35;13.05;;;;;;;7.52;100.00;102857.97;4998458;28;20380;-75
2023/02/12 00:06:49;;;;;;;28.67;14.73;;;;;;;7.35;100.00;102838.53;4997812;28;20468;-76
2023/02/12 00:09:15;;;;;;;25.00;11.95;;;;;;;7.38;100.00;102865.13;5014524;28;20041;-76
2023/02/12 00:11:41;;;;;;;14.38;8.10;;;;;;;7.27;100.00;102849.75;5014315;28;20400;-76
2023/02/12 00:14:06;;;;;;;15.05;6.45;;;;;;;7.25;100.00;102848.13;4997828;28;20450;-76
2023/02/12 00:16:36;;;;;;;12.88;5.82;;;;;;;7.36;100.00;102859.00;4998274;28;20045;-75
2023/02/12 00:19:02;;;;;;;30.15;12.77;;;;;;;7.30;100.00;102845.16;5013920;28;20049;-76
2023/02/12 00:21:28;;;;;;;17.38;7.60;;;;;;;7.38;100.00;102862.44;5014426;28;20038;-76
2023/02/12 00:23:53;;;;;;;18.70;8.98;;;;;;;7.39;100.00;102853.44;4997915;28;20101;-76
2023/02/12 00:26:20;;;;;;;18.38;9.00;;;;;;;7.44;100.00;102870.03;4997645;28;20052;-77
2023/02/12 00:28:46;;;;;;;16.88;8.98;;;;;;;7.42;100.00;102861.25;4981837;28;20065;-76
2023/02/12 00:31:15;;;;;;;15.05;6.30;;;;;;;7.39;100.00;102861.47;5013807;28;20540;-76
2023/02/12 00:33:41;;;;;;;13.02;6.07;;;;;;;7.38;100.00;102862.44;4997218;28;20066;-76
2023/02/12 00:36:07;;;;;;;10.95;5.93;;;;;;;7.42;100.00;102869.28;4997873;28;20535;-75
2023/02/12 00:38:34;;;;;;;9.35;6.13;;;;;;;7.41;100.00;102870.25;5013687;28;20033;-76
2023/02/12 00:41:03;;;;;;;10.90;6.25;;;;;;;7.26;100.00;102848.06;4997685;28;20049;-76
2023/02/12 00:43:29;;;;;;;11.25;5.20;;;;;;;7.37;100.00;102863.38;4982110;28;20026;-76
2023/02/12 00:45:55;;;;;;;11.65;6.40;;;;;;;7.31;100.00;102853.09;4997538;28;20037;-77
2023/02/12 00:48:21;;;;;;;25.23;12.07;;;;;;;7.32;100.00;102854.81;5014473;28;20041;-76
2023/02/12 00:50:50;;;;;;;14.95;7.28;;;;;;;7.30;100.00;102856.72;4997593;28;20071;-76
2023/02/12 00:53:18;;;;;;;16.50;7.28;;;;;;;7.29;100.00;102855.00;4996774;28;20040;-76
2023/02/12 00:55:45;;;;;;;15.27;7.53;;;;;;;7.24;100.00;102843.75;4997402;28;20388;-76
2023/02/12 00:58:10;;;;;;;35.55;15.80;;;;;;;7.25;100.00;102842.78;4997466;28;20480;-76
2023/02/12 01:00:36;;;;;;;32.55;14.68;;;;;;;7.22;100.00;102849.22;5013200;28;20033;-76
2023/02/12 01:03:03;;;;;;;18.38;7.30;;;;;;;7.21;100.00;102847.50;5013441;28;20109;-76
2023/02/12 01:05:29;;;;;;;16.20;7.50;;;;;;;7.18;100.00;102839.69;4997284;28;20080;-76
2023/02/12 01:07:57;;;;;;;14.93;6.70;;;;;;;7.19;100.00;102833.34;4996977;28;20103;-76
2023/02/12 01:10:23;;;;;;;12.40;6.22;;;;;;;7.23;100.00;102832.22;4981443;28;20026;-75
2023/02/12 01:12:49;;;;;;;13.43;6.82;;;;;;;7.24;100.00;102836.59;4981257;28;20080;-76
2023/02/12 01:15:20;;;;;;;13.48;6.32;;;;;;;7.24;100.00;102825.03;4996984;28;20030;-76
2023/02/12 01:17:50;;;;;;;18.98;6.32;;;;;;;7.20;100.00;102816.38;5013363;28;20476;-76
2023/02/12 01:20:22;;;;;;;9.77;6.00;;;;;;;7.27;100.00;102835.53;4996962;28;20050;-76
2023/02/12 01:22:51;;;;;;;14.25;5.68;;;;;;;7.30;100.00;102827.28;4997378;28;20038;-75
2023/02/12 01:25:20;;;;;;;14.50;6.30;;;;;;;7.20;100.00;102811.00;4980864;28;20033;-75
2023/02/12 01:27:45;;;;;;;10.65;6.03;;;;;;;7.24;100.00;102819.69;5012814;28;20056;-76
2023/02/12 01:30:12;;;;;;;7.90;4.53;;;;;;;7.18;100.00;102815.59;4997094;28;20480;-76
2023/02/12 01:32:39;;;;;;;8.98;5.22;;;;;;;7.17;100.00;102808.53;4996127;28;20433;-76
2023/02/12 01:35:07;;;;;;;13.10;5.22;;;;;;;7.08;100.00;102795.78;5012586;28;20121;-75
2023/02/12 01:37:37;;;;;;;11.20;5.60;;;;;;;7.22;100.00;102821.59;4996776;28;20041;-76
2023/02/12 01:40:04;;;;;;;13.88;6.10;;;;;;;7.22;100.00;102826.94;4997435;28;20052;-76
2023/02/12 01:42:29;;;;;;;9.55;5.13;;;;;;;7.22;100.00;102819.81;4996328;28;20072;-76
2023/02/12 01:45:13;;;;;;;10.90;5.63;;;;;;;7.25;100.00;102826.72;4996388;28;20022;-76
2023/02/12 01:47:41;;;;;;;12.65;5.85;;;;;;;7.20;100.00;102818.19;5012648;28;20038;-76
2023/02/12 01:50:12;;;;;;;17.17;6.57;;;;;;;7.17;100.00;102821.03;4980249;28;20046;-76
2023/02/12 01:52:39;;;;;;;10.77;5.13;;;;;;;7.20;100.00;102820.88;4996707;28;20038;-76
2023/02/12 01:55:07;;;;;;;9.02;5.10;;;;;;;7.25;100.00;102811.56;5012478;28;20026;-76
2023/02/12 01:57:35;;;;;;;10.32;5.68;;;;;;;7.23;100.00;102821.50;4996616;28;20125;-75
2023/02/12 02:00:13;;;;;;;10.05;4.80;;;;;;;7.18;100.00;102823.63;5012405;28;20519;-77
2023/02/12 02:02:39;;;;;;;10.15;4.68;;;;;;;7.19;100.00;102821.81;4980822;28;20037;-76
2023/02/12 02:05:05;;;;;;;8.73;4.75;;;;;;;7.20;100.00;102820.88;5012701;28;20037;-76
2023/02/12 02:07:31;;;;;;;7.68;3.97;;;;;;;7.09;100.00;102807.31;5012916;28;20121;-76
2023/02/12 02:09:56;;;;;;;7.82;4.00;;;;;;;7.18;100.00;102810.25;5002962;28;20121;-76
2023/02/12 02:15:08;;;;;;;5.20;3.40;;;;;;;7.18;100.00;102798.69;5005241;28;20460;-76
2023/02/12 02:17:50;;;;;;;6.70;4.18;;;;;;;7.21;100.00;102806.50;5002884;28;20084;-76
2023/02/12 02:20:33;;;;;;;10.25;3.83;;;;;;;7.20;100.00;102802.13;5018758;28;20048;-76
2023/02/12 02:23:20;;;;;;;8.93;4.45;;;;;;;7.19;100.00;102803.94;5019048;28;20038;-76
2023/02/12 02:26:08;;;;;;;6.85;3.38;;;;;;;7.18;100.00;102804.03;5019447;28;20033;-76
2023/02/12 02:28:57;;;;;;;8.95;4.32;;;;;;;7.18;100.00;102804.03;5018910;28;20030;-76
2023/02/12 02:31:40;;;;;;;8.75;4.03;;;;;;;7.19;100.00;102801.25;5019162;28;20124;-76
2023/02/12 02:34:28;;;;;;;6.50;3.63;;;;;;;7.19;100.00;102801.25;5002577;28;20392;-76
2023/02/12 02:37:03;;;;;;;9.00;3.97;;;;;;;7.20;100.00;102794.97;4985845;28;20045;-76
2023/02/12 02:40:01;;;;;;;8.80;3.70;;;;;;;7.21;100.00;102787.78;5018857;28;20112;-76
2023/02/12 02:42:48;;;;;;;6.30;3.13;;;;;;;7.24;100.00;102791.09;4996590;28;20049;-76
2023/02/12 02:45:18;;;;;;;6.47;2.78;;;;;;;7.25;100.00;102779.44;5019118;28;20065;-76
2023/02/12 02:47:48;;;;;;;6.07;2.97;;;;;;;7.32;100.00;102790.56;5019007;28;20476;-76
2023/02/12 02:50:25;;;;;;;6.10;3.25;;;;;;;7.33;100.00;102795.00;5018157;28;20476;-76
2023/02/12 02:53:00;;;;;;;5.60;2.88;;;;;;;7.33;100.00;102783.41;4986409;28;20172;-76
2023/02/12 02:55:29;;;;;;;4.65;2.70;;;;;;;7.40;100.00;102785.56;5002650;28;20167;-76
2023/02/12 02:58:01;;;;;;;4.72;2.60;;;;;;;7.42;100.00;102780.97;5018497;28;20038;-76
2023/02/12 03:00:41;;;;;;;4.70;2.75;;;;;;;7.45;100.00;102778.06;5019013;28;20037;-76
2023/02/12 03:03:19;;;;;;;4.68;2.70;;;;;;;7.52;100.00;102783.03;5001942;28;20712;-76
2023/02/12 03:05:48;;;;;;;5.47;2.63;;;;;;;7.51;100.00;102779.47;5002451;28;20057;-76
2023/02/12 03:08:23;;;;;;;4.85;2.42;;;;;;;7.55;100.00;102774.78;4986234;28;20034;-76
2023/02/12 03:10:53;;;;;;;9.38;3.95;;;;;;;7.57;100.00;102775.50;5018586;28;20045;-76
2023/02/12 03:13:33;;;;;;;5.85;3.25;;;;;;;7.57;100.00;102771.03;5002542;28;20130;-76
2023/02/12 03:16:08;;;;;;;7.40;3.92;;;;;;;7.60;100.00;102776.16;5018643;28;20072;-77
2023/02/12 03:18:45;;;;;;;8.25;3.97;;;;;;;7.59;100.00;102773.56;5002142;28;20037;-76
2023/02/12 03:21:16;;;;;;;4.93;2.83;;;;;;;7.59;100.00;102778.94;4998176;28;20038;-75
2023/02/12 03:23:47;;;;;;;5.82;2.90;;;;;;;7.58;100.00;102770.03;5015066;28;20564;-75
2023/02/12 03:26:22;;;;;;;3.92;2.28;;;;;;;7.55;100.00;102772.09;5015401;28;20423;-75
2023/02/12 03:28:47;;;;;;;8.07;2.75;;;;;;;7.48;100.00;102763.63;5015206;28;20034;-76
2023/02/12 03:31:19;;;;;;;8.25;3.35;;;;;;;7.45;100.00;102759.31;4998991;28;20056;-76
2023/02/12 03:34:23;;;;;;;6.55;2.92;;;;;;;7.49;100.00;102773.38;5015491;28;20048;-76
2023/02/12 03:36:58;;;;;;;7.43;4.35;;;;;;;7.43;100.00;102761.25;4998472;28;20037;-75
2023/02/12 03:39:41;;;;;;;7.35;3.53;;;;;;;7.37;100.00;102764.34;5015489;28;20045;-76
2023/02/12 03:42:11;;;;;;;12.82;5.13;;;;;;;7.29;100.00;102758.69;5031186;28;20033;-75
2023/02/12 03:44:43;;;;;;;5.43;2.95;;;;;;;7.25;100.00;102751.81;4982157;28;20061;-76
2023/02/12 03:47:44;;;;;;;11.88;5.32;;;;;;;7.22;100.00;102754.69;5015060;28;20379;-76
2023/02/12 03:50:16;;;;;;;7.25;3.90;;;;;;;7.14;100.00;102754.38;4992016;28;20042;-76
2023/02/12 03:52:45;;;;;;;6.32;3.10;;;;;;;7.15;100.00;102756.94;4998356;28;20041;-76
2023/02/12 03:55:11;;;;;;;7.60;2.95;;;;;;;7.14;100.00;102746.34;4982981;28;20430;-76
2023/02/12 03:57:41;;;;;;;7.38;3.67;;;;;;;7.14;100.00;102754.38;4998455;28;20048;-76
2023/02/12 04:00:14;;;;;;;6.53;3.55;;;;;;;7.12;100.00;102754.50;4998061;28;20080;-75
2023/02/12 04:02:40;;;;;;;;;;;;;;;7.12;100.00;102748.25;5014724;28;20022;-76
2023/02/12 04:05:26;;;;;;;7.90;3.67;;;;;;;7.10;100.00;102753.72;4982834;28;19920;-76
2023/02/12 04:07:53;;;;;;;7.82;3.40;;;;;;;7.10;100.00;102747.53;4998912;28;20041;-76
2023/02/12 04:10:34;;;;;;;10.15;4.60;;;;;;;7.04;100.00;102738.97;5014217;28;20061;-76
2023/02/12 04:13:11;;;;;;;7.03;3.03;;;;;;;7.06;100.00;102738.84;4998448;28;20037;-75
2023/02/12 04:16:03;;;;;;;5.82;3.40;;;;;;;7.06;100.00;102736.16;5014629;28;20545;-76
2023/02/12 04:18:48;;;;;;;7.53;4.22;;;;;;;7.10;100.00;102739.50;5014681;28;20041;-75
2023/02/12 04:21:39;;;;;;;12.55;5.55;;;;;;;7.08;100.00;102739.59;5014353;28;20034;-75
2023/02/12 04:24:18;;;;;;;9.15;4.15;;;;;;;7.12;100.00;102742.91;5013440;28;20033;-75
2023/02/12 04:27:01;;;;;;;4.00;2.60;;;;;;;7.11;100.00;102741.22;4982273;28;20092;-75
2023/02/12 04:30:01;;;;;;;4.28;2.70;;;;;;;7.14;100.00;102738.31;4995371;28;20041;-76
2023/02/12 04:32:36;;;;;;;8.25;3.78;;;;;;;7.14;100.00;102735.66;5013518;28;20037;-75
2023/02/12 04:35:04;;;;;;;8.07;2.83;;;;;;;7.14;100.00;102736.50;4998025;28;20545;-75
2023/02/12 04:37:39;;;;;;;5.47;2.85;;;;;;;7.20;100.00;102729.91;4997366;28;20076;-75
2023/02/12 04:40:12;;;;;;;6.78;3.42;;;;;;;7.20;100.00;102737.91;5014977;28;20026;-76
2023/02/12 04:42:42;;;;;;;6.07;3.08;;;;;;;7.18;100.00;102731.81;4997829;28;20058;-76
2023/02/12 04:45:10;;;;;;;6.18;2.63;;;;;;;7.20;100.00;102740.59;4997365;28;20025;-75
2023/02/12 04:47:36;;;;;;;5.32;2.67;;;;;;;7.24;100.00;102742.09;4997812;28;20042;-75
2023/02/12 04:50:01;;;;;;;6.07;3.03;;;;;;;7.28;100.00;102740.91;5013165;28;20038;-76
2023/02/12 04:52:30;;;;;;;6.13;3.13;;;;;;;7.24;100.00;102737.56;4998220;28;20037;-75
2023/02/12 04:54:56;;;;;;;6.47;3.13;;;;;;;7.23;100.00;102737.69;5013377;28;20034;-76
2023/02/12 04:57:21;;;;;;;6.07;3.67;;;;;;;7.19;100.00;102730.84;4996820;28;20113;-75
2023/02/12 04:59:47;;;;;;;5.47;3.55;;;;;;;7.17;100.00;102744.34;4997108;28;20591;-75
2023/02/12 05:02:18;;;;;;;8.02;3.45;;;;;;;7.13;100.00;102736.63;4997339;28;20033;-75
2023/02/12 05:04:44;;;;;;;7.88;3.65;;;;;;;7.08;100.00;102733.41;4981352;28;20065;-75
2023/02/12 05:07:10;;;;;;;10.10;3.55;;;;;;;7.06;100.00;102733.50;5013336;28;20472;-76
2023/02/12 05:09:36;;;;;;;5.50;2.83;;;;;;;7.07;100.00;102732.53;5012846;28;20033;-76
2023/02/12 05:12:02;;;;;;;6.10;3.47;;;;;;;7.15;100.00;102729.34;4997489;28;20038;-76
2023/02/12 05:14:28;;;;;;;8.50;4.40;;;;;;;7.26;100.00;102729.47;4997314;28;20530;-75
2023/02/12 05:16:53;;;;;;;14.48;4.53;;;;;;;7.33;100.00;102741.47;4997009;28;20461;-75
2023/02/12 05:19:19;;;;;;;6.53;3.55;;;;;;;7.35;100.00;102736.84;5013092;28;20096;-75
2023/02/12 05:21:45;;;;;;;8.02;4.25;;;;;;;7.31;100.00;102724.66;4997176;28;20472;-76
2023/02/12 05:24:10;;;;;;;11.88;4.60;;;;;;;7.36;100.00;102735.91;5012814;28;20034;-75
2023/02/12 05:26:39;;;;;;;9.80;3.90;;;;;;;7.41;100.00;102738.22;5013337;28;20456;-76
2023/02/12 05:29:05;;;;;;;6.97;3.75;;;;;;;7.36;100.00;102727.88;4980605;28;20480;-76
2023/02/12 05:31:31;;;;;;;7.93;3.47;;;;;;;7.39;100.00;102738.34;4980876;28;20076;-75
2023/02/12 05:33:56;;;;;;;10.30;4.20;;;;;;;7.43;100.00;102733.63;4996835;28;20807;-75
2023/02/12 05:36:23;;;;;;;7.22;3.60;;;;;;;7.44;100.00;102738.88;4996120;28;20033;-76
2023/02/12 05:38:49;;;;;;;6.53;2.83;;;;;;;7.47;100.00;102735.16;5012703;28;20505;-75
2023/02/12 05:41:18;;;;;;;7.72;3.20;;;;;;;7.51;100.00;102735.78;5012954;28;20456;-75
2023/02/12 05:43:44;;;;;;;8.35;2.47;;;;;;;7.49;100.00;102734.06;5011936;28;20080;-76
2023/02/12 05:46:12;;;;;;;6.15;3.03;;;;;;;7.44;100.00;102732.69;4996409;28;20038;-75
2023/02/12 05:48:39;;;;;;;6.53;3.45;;;;;;;7.38;100.00;102723.28;4980123;28;20400;-78
2023/02/12 05:51:10;;;;;;;8.07;3.35;;;;;;;7.41;100.00;102725.72;4996363;28;20383;-75
2023/02/12 05:53:36;;;;;;;8.48;3.22;;;;;;;7.40;100.00;102732.03;4980757;28;20084;-76
2023/02/12 05:56:06;;;;;;;10.40;4.30;;;;;;;7.40;100.00;102742.72;5012634;28;20037;-76
2023/02/12 05:58:32;;;;;;;9.05;3.88;;;;;;;7.42;100.00;102737.28;5012708;28;20045;-77
2023/02/12 06:00:57;;;;;;;8.57;3.53;;;;;;;7.54;100.00;102740.91;4996363;28;20391;-76
2023/02/12 06:03:23;;;;;;;5.25;2.78;;;;;;;7.57;100.00;102741.56;5012625;28;20026;-77
2023/02/12 06:05:50;;;;;;;6.32;3.15;;;;;;;7.61;100.00;102736.84;4996060;28;20104;-77
2023/02/12 06:08:16;;;;;;;6.93;3.72;;;;;;;7.61;100.00;102731.50;4980394;28;20064;-77
2023/02/12 06:10:42;;;;;;;8.48;2.95;;;;;;;7.60;100.00;102730.66;4996383;28;20460;-78
2023/02/12 06:13:07;;;;;;;5.97;2.67;;;;;;;7.59;100.00;102722.72;5012520;28;20057;-77
2023/02/12 06:15:35;;;;;;;5.05;2.17;;;;;;;7.51;100.00;102722.41;4996495;28;20030;-77
2023/02/12 06:18:01;;;;;;;6.97;3.00;;;;;;;7.47;100.00;102724.44;4995999;28;20441;-77
2023/02/12 06:20:27;;;;;;;6.75;2.92;;;;;;;7.40;100.00;102717.78;4996402;28;20477;-75
2023/02/12 06:22:52;;;;;;;8.52;3.25;;;;;;;7.39;100.00;102719.63;4996273;28;20026;-77
2023/02/12 06:25:19;;;;;;;5.80;2.90;;;;;;;7.27;100.00;102707.09;5011914;28;20030;-76
2023/02/12 06:27:45;;;;;;;2.85;1.45;;;;;;;7.30;100.00;102708.69;4996356;28;20038;-75
2023/02/12 06:30:11;;;;;;;4.43;2.30;;;;;;;7.28;100.00;102708.81;5012470;28;20033;-76
2023/02/12 06:32:37;;;;;;;5.05;2.50;;;;;;;7.26;100.00;102705.38;4996011;28;20427;-76
2023/02/12 06:35:12;;;;;;;5.20;2.10;;;;;;;7.28;100.00;102708.81;4996239;28;20034;-77
2023/02/12 06:37:38;;;;;;;4.28;2.00;;;;;;;7.25;100.00;102714.34;5012022;28;20033;-78
2023/02/12 06:40:04;;;;;;;6.28;1.90;;;;;;;7.21;100.00;102707.50;5012412;28;20041;-77
2023/02/12 06:42:30;;;;;;;3.40;1.60;;;;;;;7.18;100.00;102699.72;4979542;28;20073;-76
2023/02/12 06:44:56;;;;;;;2.28;1.67;;;;;;;7.18;100.00;102705.06;4996140;28;20045;-76
2023/02/12 06:47:21;;;;;;;2.50;1.40;;;;;;;7.15;100.00;102695.41;4980008;28;20057;-76
2023/02/12 06:49:49;;;;;;;3.13;1.58;;;;;;;7.17;100.00;102695.28;4996210;28;20115;-76
2023/02/12 06:52:15;;;;;;;7.15;2.95;;;;;;;7.15;100.00;102686.53;4996188;28;20515;-76
2023/02/12 06:54:43;;;;;;;9.50;4.35;;;;;;;7.14;100.00;102691.00;4981122;28;20183;-77
2023/02/12 06:57:09;;;;;;;11.70;6.00;;;;;;;7.14;100.00;102683.00;4999427;28;20036;-76
2023/02/12 06:59:34;;;;;;;6.40;2.40;;;;;;;7.17;100.00;102689.94;4999408;28;20030;-76
2023/02/12 07:02:00;;;;;;;6.38;4.20;;;;;;;7.18;100.00;102686.31;4999770;28;20096;-76
2023/02/12 07:04:36;;;;;;;5.38;3.25;;;;;;;7.20;100.00;102690.63;4983324;28;20092;-76
2023/02/12 07:07:04;;;;;;;4.63;2.65;;;;;;;7.24;100.00;102702.78;5000579;28;20046;-78
2023/02/12 07:09:45;;;;;;;3.55;2.03;;;;;;;7.17;100.00;102696.19;5015821;28;20056;-77
2023/02/12 07:13:05;;;;;;;;;;;;;;;;;;;;;
2023/02/12 07:15:48;;;;;;;5.38;2.92;;;;;;;7.03;100.00;102694.44;4972516;28;20037;-75
2023/02/12 07:18:22;;;;;;;6.38;2.65;;;;;;;7.05;100.00;102700.53;4986250;28;20041;-75
2023/02/12 07:20:51;;;;;;;6.13;3.20;;;;;;;7.05;100.00;102692.50;5014915;28;20034;-76
2023/02/12 07:23:17;;;;;;;5.88;2.10;;;;;;;7.03;100.00;102697.09;4999126;28;20034;-75
2023/02/12 07:25:43;;;;;;;4.20;1.85;;;;;;;7.04;100.00;102693.50;4998692;28;20042;-76
2023/02/12 07:28:08;;;;;;;1.17;1.08;;;;;;;6.99;100.00;102687.59;4983020;28;20066;-75
2023/02/12 07:30:34;;;;;;;2.38;1.23;;;;;;;6.99;100.00;102694.78;4982749;28;20030;-76
2023/02/12 07:33:00;;;;;;;5.30;2.40;;;;;;;6.83;100.00;102676.25;4999317;28;20034;-75
2023/02/12 07:35:30;;;;;;;4.53;1.85;;;;;;;6.80;100.00;102688.00;4999146;28;20037;-75
2023/02/12 07:37:56;;;;;;;6.72;2.80;;;;;;;6.81;100.00;102699.53;5015329;28;20054;-76
2023/02/12 07:40:21;;;;;;;6.20;2.85;;;;;;;6.71;100.00;102693.09;4998917;28;20073;-77
2023/02/12 07:42:53;;;;;;;6.82;3.15;;;;;;;6.74;100.00;102703.59;4982572;28;20041;-77
2023/02/12 07:45:19;;;;;;;5.97;2.63;;;;;;;6.69;100.00;102703.03;5015773;28;20018;-78
2023/02/12 07:47:45;;;;;;;7.78;2.33;;;;;;;6.64;100.00;102697.97;5014990;28;20044;-78
2023/02/12 07:50:10;;;;;;;5.43;2.45;;;;;;;6.62;100.00;102699.94;4998827;28;20030;-75
2023/02/12 07:52:36;;;;;;;6.45;2.70;;;;;;;6.57;100.00;102702.91;4998586;28;20064;-78
2023/02/12 07:55:02;;;;;;;6.55;2.55;;;;;;;6.59;100.00;102713.50;5015055;28;20033;-77
2023/02/12 07:57:28;;;;;;;6.13;2.90;;;;;;;6.54;100.00;102713.78;4998538;28;20460;-79
2023/02/12 07:59:54;;;;;;;7.80;3.10;;;;;;;6.52;100.00;102704.16;4998262;28;20088;-77
2023/02/12 08:02:25;;;;;;;11.93;4.60;;;;;;;6.54;100.00;102705.78;4997765;28;20503;-76
2023/02/12 08:04:57;;;;;;;8.10;3.78;;;;;;;6.50;100.00;102701.59;5014728;28;20025;-78
2023/02/12 08:07:24;;;;;;;10.75;4.10;;;;;;;6.56;100.00;102711.00;5013941;28;20085;-77
2023/02/12 08:09:50;;;;;;;20.33;4.25;;;;;;;6.54;100.00;102702.25;4998416;28;20124;-75
2023/02/12 08:12:23;;;;;;;7.05;2.88;;;;;;;6.60;100.00;102718.72;5014432;28;20057;-76
2023/02/12 08:14:48;;;;;;;9.77;3.70;;;;;;;6.64;100.00;102724.72;5014581;28;20076;-75
2023/02/12 08:17:14;;;;;;;6.50;2.30;;;;;;;6.63;100.00;102723.00;4998218;28;20073;-79
2023/02/12 08:19:40;;;;;;;6.03;2.80;;;;;;;6.72;100.00;102730.44;4981875;28;20053;-75
2023/02/12 08:22:06;;;;;;;10.18;3.85;;;;;;;6.74;100.00;102727.63;4997813;28;20116;-75
2023/02/12 08:25:10;;;;;;;6.05;3.03;;;;;;;6.83;100.00;102732.38;4997960;28;20036;-77
2023/02/12 08:27:59;;;;;;;5.50;2.22;;;;;;;6.82;100.00;102720.81;4957265;28;20134;-78
2023/02/12 08:30:51;;;;;;;6.40;2.30;;;;;;;6.83;100.00;102711.00;4973588;28;20049;-78
2023/02/12 08:33:24;;;;;;;7.40;2.75;;;;;;;6.71;100.00;102687.75;4941705;28;20043;-78
2023/02/12 08:36:53;;;;;;;5.32;1.80;;;;;;;6.48;100.00;102657.22;4980928;28;20180;-77
2023/02/12 08:39:36;;;;;;;8.93;3.35;;;;;;;6.89;100.00;102721.28;4999848;28;20065;-77
2023/02/12 08:42:14;;;;;;;7.15;3.55;;;;;;;6.72;100.00;102689.44;5013691;28;20088;-75
2023/02/12 08:44:59;;;;;;;10.98;4.43;;;;;;;6.93;100.00;102719.25;4997388;28;20030;-78
2023/02/12 08:47:37;;;;;;;12.88;4.88;;;;;;;6.57;100.00;102654.78;4997116;28;20129;-77
2023/02/12 08:50:15;;;;;;;14.68;5.07;;;;;;;6.87;100.00;102696.44;5013436;28;20026;-77
2023/02/12 08:52:46;;;;;;;17.38;6.55;;;;;;;6.88;100.00;102689.28;4997736;28;20120;-78
2023/02/12 08:55:13;;;;;;;18.77;5.43;;;;;;;7.07;100.00;102710.28;4996955;28;20116;-76
2023/02/12 08:57:52;;;;;;;21.17;6.13;;;;;;;7.09;100.00;102698.50;5013016;28;20021;-77
2023/02/12 09:00:24;;;;;;;9.73;4.50;;;;;;;7.10;100.00;102689.53;4982326;28;20092;-76
2023/02/12 09:02:50;;;;;;;17.05;6.07;;;;;;;7.26;100.00;102700.88;4997116;28;20038;-76
2023/02/12 09:05:18;;;;;;;12.88;4.05;;;;;;;7.41;100.00;102709.66;4997371;28;20112;-76
2023/02/12 09:07:46;;;;;;;26.67;10.38;;;;;;;7.51;100.00;102715.22;4997137;28;20034;-76
2023/02/12 09:10:12;;;;;;;33.47;12.93;;;;;;;7.52;100.00;102705.38;5013632;28;20534;-77
2023/02/12 09:12:38;;;;;;;29.27;9.60;;;;;;;7.54;100.00;102698.06;4997968;28;20088;-76
2023/02/12 09:15:04;;;;;;;32.63;8.38;;;;;;;7.60;100.00;102708.38;4997482;28;20026;-77
2023/02/12 09:17:30;;;;;;;25.10;10.40;;;;;;;7.66;100.00;102713.28;4996251;28;20029;-76
2023/02/12 09:20:22;;;;;;;45.88;14.32;;;;;;;7.73;100.00;102709.22;5012369;28;20472;-76
2023/02/12 09:22:53;;;;;;;13.95;5.65;;;;;;;7.74;100.00;102700.19;4997068;28;20034;-76
2023/02/12 09:25:19;;;;;;;13.70;5.80;;;;;;;7.86;100.00;102704.69;4997888;28;20037;-76
2023/02/12 09:27:44;;;;;;;11.98;4.78;;;;;;;7.90;100.00;102700.81;4997121;28;20396;-76
2023/02/12 09:30:10;;;;;;;13.68;8.23;;;;;;;7.97;100.00;102693.19;5013935;28;20030;-76
2023/02/12 09:32:39;;;;;;;11.32;4.80;;;;;;;8.04;100.00;102705.16;5013036;28;20473;-76
2023/02/12 09:35:07;;;;;;;27.13;7.78;;;;;;;8.10;100.00;102695.84;4980514;28;20073;-77
2023/02/12 09:37:33;;;;;;;7.03;3.42;;;;;;;8.19;100.00;102684.44;4996627;28;20067;-77
2023/02/12 09:39:58;;;;;;;13.02;3.45;;;;;;;8.25;100.00;102693.84;4980499;28;20456;-76
2023/02/12 09:42:53;;;;;;;6.55;2.90;;;;;;;8.35;100.00;102697.56;5012725;28;20121;-76
2023/02/12 09:45:22;;;;;;;9.50;4.03;;;;;;;8.35;100.00;102700.25;5028760;28;20038;-77
2023/02/12 09:48:19;;;;;;;8.48;2.58;;;;;;;8.40;100.00;102702.63;5012947;28;20083;-77
2023/02/12 09:50:51;;;;;;;7.68;2.22;;;;;;;8.37;100.00;102693.78;4995872;28;20038;-77
2023/02/12 09:53:20;;;;;;;10.55;4.20;;;;;;;8.49;100.00;102694.72;4996669;28;20030;-76
2023/02/12 09:55:46;;;;;;;5.82;2.30;;;;;;;8.50;100.00;102683.06;4996140;28;20079;-76
2023/02/12 09:58:41;;;;;;;10.13;3.60;;;;;;;8.57;100.00;102681.63;4995961;28;20034;-76
2023/02/12 10:01:18;;;;;;;7.03;2.70;;;;;;;8.57;100.00;102668.22;5012896;28;20037;-75
2023/02/12 10:03:45;;;;;;;17.17;5.85;;;;;;;8.67;100.00;102673.72;5012363;28;20034;-76
2023/02/12 10:06:15;;;;;;;7.28;3.42;;;;;;;8.84;100.00;102685.88;4980282;28;20068;-75
2023/02/12 10:09:15;;;;;;;10.48;3.28;;;;;;;8.96;100.00;102678.69;4996501;28;20030;-75
2023/02/12 10:12:22;;;;;;;11.02;4.45;;;;;;;9.12;100.00;102681.03;5012297;28;20070;-75
2023/02/12 10:15:12;;;;;;;10.35;3.20;;;;;;;9.33;100.00;102683.88;5004611;28;20100;-77
2023/02/12 10:17:47;;;;;;;13.20;5.57;;;;;;;9.44;100.00;102683.88;5012387;28;20092;-75
2023/02/12 10:20:31;;;;;;;14.60;5.28;;;;;;;9.55;100.00;102673.16;4996548;28;20511;-75
2023/02/12 10:23:08;;;;;;;8.82;3.47;;;;;;;9.64;99.34;102668.88;5028557;28;20384;-78
2023/02/12 10:25:57;;;;;;;20.15;10.00;;;;;;;9.69;97.79;102677.44;5012588;28;20033;-78
2023/02/12 10:28:38;;;;;;;10.88;4.70;;;;;;;9.71;97.38;102669.22;4996989;28;20045;-77
2023/02/12 10:31:25;;;;;;;13.05;8.30;;;;;;;9.76;97.15;102667.03;4999862;28;20083;-76
2023/02/12 10:33:53;;;;;;;10.02;4.57;;;;;;;9.76;96.34;102651.75;5016625;28;20038;-77
2023/02/12 10:36:43;;;;;;;7.53;4.63;;;;;;;9.77;95.08;102641.91;4999883;28;20435;-78
2023/02/12 10:39:13;;;;;;;16.20;5.80;;;;;;;9.89;93.42;102651.63;5016577;28;20097;-75
2023/02/12 10:42:01;;;;;;;13.85;7.80;;;;;;;9.94;93.86;102652.09;4999748;28;20048;-75
2023/02/12 10:44:27;;;;;;;12.35;5.38;;;;;;;9.94;93.04;102640.50;4999919;28;20042;-75
2023/02/12 10:46:53;;;;;;;20.42;6.60;;;;;;;9.98;92.82;102645.50;5000030;28;20046;-76
2023/02/12 10:49:22;;;;;;;15.80;8.75;;;;;;;10.07;92.24;102650.13;5015800;28;20037;-81
2023/02/12 10:51:58;;;;;;;13.30;7.55;;;;;;;10.09;91.27;102636.56;5000152;28;20037;-84
2023/02/12 10:54:36;;;;;;;18.67;11.70;;;;;;;10.12;90.84;102642.53;5016014;28;20049;-82
2023/02/12 10:57:13;;;;;;;15.10;5.35;;;;;;;10.22;90.09;102649.84;4999471;28;20030;-87
2023/02/12 10:59:43;;;;;;;4.90;3.10;;;;;;;10.31;89.34;102643.72;5016496;28;20041;-87
2023/02/12 11:02:30;;;;;;;9.38;3.80;;;;;;;10.36;87.84;102640.66;4999575;28;20052;-87
2023/02/12 11:04:58;;;;;;;6.53;3.40;;;;;;;10.38;87.55;102649.47;4999636;28;20045;-87
2023/02/12 11:07:28;;;;;;;8.02;3.90;;;;;;;10.35;87.75;102647.88;5015628;28;20483;-87
2023/02/12 11:09:55;;;;;;;8.75;2.78;;;;;;;10.41;87.71;102650.03;4999734;28;20034;-84
2023/02/12 11:12:35;;;;;;;11.68;4.15;;;;;;;10.47;86.57;102649.53;5015405;28;20072;-79
2023/02/12 11:15:15;;;;;;;13.88;4.32;;;;;;;10.44;86.22;102651.63;5015287;28;20046;-81
2023/02/12 11:17:43;;;;;;;47.13;17.27;;;;;;;10.37;86.48;102629.75;4999437;28;20117;-87
2023/02/12 11:20:15;;;;;;;21.27;8.93;;;;;;;10.40;86.70;102637.59;5015203;28;20465;-79
2023/02/12 11:22:53;;;;;;;19.88;8.05;;;;;;;10.19;86.62;102613.31;5015469;28;20034;-87
2023/02/12 11:25:20;;;;;;;12.13;5.45;;;;;;;10.31;86.72;102627.59;5016345;28;20061;-86
2023/02/12 11:28:02;;;;;;;21.40;5.93;;;;;;;10.21;86.26;102614.03;4999472;28;20546;-87
2023/02/12 11:30:28;;;;;;;11.85;4.90;;;;;;;10.19;86.21;102626.75;5014987;28;20092;-87
2023/02/12 11:32:54;;;;;;;14.73;5.47;;;;;;;9.97;86.14;102600.78;4997891;28;20472;-86
2023/02/12 11:35:27;;;;;;;15.20;4.93;;;;;;;10.13;86.00;102622.75;4999020;28;20100;-86
2023/02/12 11:37:57;;;;;;;12.50;6.20;;;;;;;10.09;86.52;102623.13;5015274;28;20033;-87
2023/02/12 11:40:34;;;;;;;10.10;5.18;;;;;;;10.09;86.47;102621.28;4998563;28;20519;-87
2023/02/12 11:43:04;;;;;;;14.60;4.28;;;;;;;10.05;86.18;102630.56;4983301;28;20034;-83
2023/02/12 11:45:36;;;;;;;12.07;4.32;;;;;;;9.99;86.46;102633.78;4983774;28;20141;-89
2023/02/12 11:48:02;;;;;;;10.30;3.95;;;;;;;9.97;87.07;102635.72;5014695;28;20510;-86
2023/02/12 11:50:30;;;;;;;5.60;2.83;;;;;;;9.95;87.71;102639.53;4998551;28;20026;-82